Spirit Of New York — WCW9332 — position and weather

sailwx.info

Track history (hours):
 
Tides and Currents Weather Stations Pressure Air Temp Water Temp Dewpoint Dewpoint Depression Visibility Wind Speed Wind Dir Waves Ship Positions

Spirit Of New York

Owner: SPIRIT CRUISES LLC, NEW YORK, NY. More information available from US FCC via Universal Licensing System and Coast Guard Vessel Documentation Center.

Last reported at 2016-Aug-27 08:09 UTC. Time now 2016-Aug-27 15:09 UTC.
Position N 40°45' W 074°01'.

Length 62 m.

Type: Passenger vessel. MMSI: 338897000.

Date/timePositionNaut miles runAvg speedWind from/ knotsBaromVisibWave heightAir tempDewpointWater temp
2016-Aug-27 08:09N 40°45' W 074°01'0 0.6
2016-Aug-27 07:33N 40°45' W 074°01'2 2.4
2016-Aug-27 06:33N 40°42' W 073°60'3 1.3
2016-Aug-27 04:33N 40°45' W 074°01'0 0.0
2016-Aug-27 03:33N 40°45' W 074°01'0 0.0
2016-Aug-27 02:33N 40°45' W 074°01'0 0.0
2016-Aug-27 01:33N 40°45' W 074°01'4 3.8
2016-Aug-27 00:33N 40°41' W 074°02'5 4.9
2016-Aug-26 23:33N 40°46' W 074°01'1 1.1
2016-Aug-26 22:33N 40°45' W 074°01'1 0.2
2016-Aug-26 18:33N 40°46' W 074°01'1 1.2
2016-Aug-26 17:33N 40°44' W 074°01'2 2.3
2016-Aug-26 16:33N 40°42' W 074°01'3 3.5
2016-Aug-26 15:33N 40°46' W 074°01'0 0.2
2016-Aug-26 14:33N 40°45' W 074°01'1 0.0
2016-Aug-26 01:14N 40°45' W 074°01'2 2.6
2016-Aug-26 00:33N 40°43' W 074°01'2 1.8
2016-Aug-25 23:33N 40°45' W 074°01'0 0.0
2016-Aug-25 22:33N 40°45' W 074°01'0 0.0
2016-Aug-25 21:33N 40°45' W 074°01'0 0.0
2016-Aug-25 20:33N 40°45' W 074°01'0 0.0
2016-Aug-25 01:34N 40°45' W 074°01'4 3.9
2016-Aug-25 00:33N 40°41' W 074°02'5 4.5
2016-Aug-24 23:34N 40°46' W 074°01'1 0.8
2016-Aug-24 22:34N 40°45' W 074°01'0 0.0
2016-Aug-24 18:31N 40°45' W 074°01'1 0.9
2016-Aug-24 17:34N 40°44' W 074°01'2 1.8
2016-Aug-24 16:34N 40°42' W 074°01'3 2.6
2016-Aug-24 15:33N 40°45' W 074°01'0 0.0
2016-Aug-24 02:16N 40°45' W 074°01'0 0.0
2016-Aug-24 01:33N 40°45' W 074°01'4 4.1
2016-Aug-24 00:33N 40°41' W 074°03'5 4.6
2016-Aug-23 23:33N 40°45' W 074°01'1 0.0
2016-Aug-22 17:33N 40°45' W 074°01'2 1.6
2016-Aug-22 16:34N 40°43' W 074°02'2 0.1
2016-Aug-22 01:17N 40°45' W 074°01'4 4.9
2016-Aug-22 00:33N 40°41' W 074°02'3 3.0
2016-Aug-21 23:34N 40°44' W 074°01'0 0.0
2016-Aug-21 17:33N 40°44' W 074°01'2 2.1
2016-Aug-21 16:33N 40°42' W 074°01'3 0.3
2016-Aug-21 07:19N 40°45' W 074°01'4 4.9
2016-Aug-21 06:33N 40°41' W 074°02'1 1.3
2016-Aug-21 05:33N 40°42' W 074°01'3 0.7
2016-Aug-21 01:34N 40°45' W 074°01'3 2.8
2016-Aug-21 00:33N 40°42' W 074°01'3 2.8
2016-Aug-20 23:33N 40°45' W 074°01'1 0.1
2016-Aug-20 17:33N 40°44' W 074°01'1 0.8
2016-Aug-20 16:33N 40°43' W 074°01'2 0.1
2016-Aug-20 01:18N 40°45' W 074°01'4 5.0
2016-Aug-20 00:34N 40°41' W 074°02'3 3.4
2016-Aug-19 23:34N 40°45' W 074°01'1 0.2
2016-Aug-19 18:33N 40°46' W 074°01'1 0.6
2016-Aug-19 17:34N 40°45' W 074°01'3 2.8
2016-Aug-19 16:34N 40°42' W 074°01'3 3.4
2016-Aug-19 15:34N 40°46' W 074°01'0 0.1
2016-Aug-19 14:33N 40°46' W 074°01'1 0.1
2016-Aug-19 01:33N 40°45' W 074°01'1 1.2
2016-Aug-19 00:33N 40°44' W 074°01'1 0.5
2016-Aug-18 23:33N 40°43' W 074°01'2 1.7
2016-Aug-18 22:33N 40°45' W 074°01'0 0.0
2016-Aug-18 21:33N 40°45' W 074°01'1 0.8
2016-Aug-18 20:33N 40°44' W 074°01'2 2.3
2016-Aug-18 19:33N 40°42' W 074°01'3 0.2
2016-Aug-17 23:33N 40°45' W 074°01'3 2.8
2016-Aug-17 22:33N 40°42' W 073°60'1 1.1
2016-Aug-17 21:33N 40°43' W 074°01'0 0.0
2016-Aug-17 20:33N 40°43' W 074°01'  
Track history (hours):
 
Tides and Currents Weather Stations Pressure Air Temp Water Temp Dewpoint Dewpoint Depression Visibility Wind Speed Wind Dir Waves Ship Positions

Spirit Of New York

Owner: SPIRIT CRUISES LLC, NEW YORK, NY. More information available from US FCC via Universal Licensing System and Coast Guard Vessel Documentation Center.

Last reported at 2016-Aug-27 08:09 UTC. Time now 2016-Aug-27 15:09 UTC.
Position N 40°45' W 074°01'.

Length 62 m.

Type: Passenger vessel. MMSI: 338897000.

Date/timePositionNaut miles runAvg speedWind from/ knotsBaromVisibWave heightAir tempDewpointWater temp
2016-Aug-27 08:09N 40°45' W 074°01'0 0.6
2016-Aug-27 07:33N 40°45' W 074°01'2 2.4
2016-Aug-27 06:33N 40°42' W 073°60'3 1.3
2016-Aug-27 04:33N 40°45' W 074°01'0 0.0
2016-Aug-27 03:33N 40°45' W 074°01'0 0.0
2016-Aug-27 02:33N 40°45' W 074°01'0 0.0
2016-Aug-27 01:33N 40°45' W 074°01'4 3.8
2016-Aug-27 00:33N 40°41' W 074°02'5 4.9
2016-Aug-26 23:33N 40°46' W 074°01'1 1.1
2016-Aug-26 22:33N 40°45' W 074°01'1 0.2
2016-Aug-26 18:33N 40°46' W 074°01'1 1.2
2016-Aug-26 17:33N 40°44' W 074°01'2 2.3
2016-Aug-26 16:33N 40°42' W 074°01'3 3.5
2016-Aug-26 15:33N 40°46' W 074°01'0 0.2
2016-Aug-26 14:33N 40°45' W 074°01'1 0.0
2016-Aug-26 01:14N 40°45' W 074°01'2 2.6
2016-Aug-26 00:33N 40°43' W 074°01'2 1.8
2016-Aug-25 23:33N 40°45' W 074°01'0 0.0
2016-Aug-25 22:33N 40°45' W 074°01'0 0.0
2016-Aug-25 21:33N 40°45' W 074°01'0 0.0
2016-Aug-25 20:33N 40°45' W 074°01'0 0.0
2016-Aug-25 01:34N 40°45' W 074°01'4 3.9
2016-Aug-25 00:33N 40°41' W 074°02'5 4.5
2016-Aug-24 23:34N 40°46' W 074°01'1 0.8
2016-Aug-24 22:34N 40°45' W 074°01'0 0.0
2016-Aug-24 18:31N 40°45' W 074°01'1 0.9
2016-Aug-24 17:34N 40°44' W 074°01'2 1.8
2016-Aug-24 16:34N 40°42' W 074°01'3 2.6
2016-Aug-24 15:33N 40°45' W 074°01'0 0.0
2016-Aug-24 02:16N 40°45' W 074°01'0 0.0
2016-Aug-24 01:33N 40°45' W 074°01'4 4.1
2016-Aug-24 00:33N 40°41' W 074°03'5 4.6
2016-Aug-23 23:33N 40°45' W 074°01'1 0.0
2016-Aug-22 17:33N 40°45' W 074°01'2 1.6
2016-Aug-22 16:34N 40°43' W 074°02'2 0.1
2016-Aug-22 01:17N 40°45' W 074°01'4 4.9
2016-Aug-22 00:33N 40°41' W 074°02'3 3.0
2016-Aug-21 23:34N 40°44' W 074°01'0 0.0
2016-Aug-21 17:33N 40°44' W 074°01'2 2.1
2016-Aug-21 16:33N 40°42' W 074°01'3 0.3
2016-Aug-21 07:19N 40°45' W 074°01'4 4.9
2016-Aug-21 06:33N 40°41' W 074°02'1 1.3
2016-Aug-21 05:33N 40°42' W 074°01'3 0.7
2016-Aug-21 01:34N 40°45' W 074°01'3 2.8
2016-Aug-21 00:33N 40°42' W 074°01'3 2.8
2016-Aug-20 23:33N 40°45' W 074°01'1 0.1
2016-Aug-20 17:33N 40°44' W 074°01'1 0.8
2016-Aug-20 16:33N 40°43' W 074°01'2 0.1
2016-Aug-20 01:18N 40°45' W 074°01'4 5.0
2016-Aug-20 00:34N 40°41' W 074°02'3 3.4
2016-Aug-19 23:34N 40°45' W 074°01'1 0.2
2016-Aug-19 18:33N 40°46' W 074°01'1 0.6
2016-Aug-19 17:34N 40°45' W 074°01'3 2.8
2016-Aug-19 16:34N 40°42' W 074°01'3 3.4
2016-Aug-19 15:34N 40°46' W 074°01'0 0.1
2016-Aug-19 14:33N 40°46' W 074°01'1 0.1
2016-Aug-19 01:33N 40°45' W 074°01'1 1.2
2016-Aug-19 00:33N 40°44' W 074°01'1 0.5
2016-Aug-18 23:33N 40°43' W 074°01'2 1.7
2016-Aug-18 22:33N 40°45' W 074°01'0 0.0
2016-Aug-18 21:33N 40°45' W 074°01'1 0.8
2016-Aug-18 20:33N 40°44' W 074°01'2 2.3
2016-Aug-18 19:33N 40°42' W 074°01'3 0.2
2016-Aug-17 23:33N 40°45' W 074°01'3 2.8
2016-Aug-17 22:33N 40°42' W 073°60'1 1.1
2016-Aug-17 21:33N 40°43' W 074°01'0 0.0
2016-Aug-17 20:33N 40°43' W 074°01'  

Dump ship's entire track history